Flugplatz Donzdorf

Für EDPM sind keine METAR/TAF Berichte vorhanden.
Es werden die Flugwettermeldungen vom Flugplatz Stuttgart in 45 km Entfernung angezeigt.

Bericht für EDDS

vom 23.08. um 13:50 UTC

variable Windrichtung mit 5 kt

Sichtweite 10 km oder mehr

gering bewölkt in 4800 ft

Temperatur 25.0°C

Taupunkt 12.0°C

Luftfeuchtigkeit 44%

Luftdruck 1024 hPa

keine wesentliche Wetteränderung innerhalb den nächsten 2 Stunden zu erwarten

EDDS 231350Z VRB05KT 9999 FEW048 25/12 Q1024 NOSIG

Prognose für EDDS

vom 23.08. um 00:00 UTC

Zwischen 00:00 UTC und 00:00 UTC

Wind 6 kt aus 60°

Sichtweite 10 km oder mehr

gering bewölkt in 4500 ft


Zwischen 00:00 und 00:00 UTC übergehend zu

variable Windrichtung mit 3 kt

Sichtweite 10 km oder mehr

gering bewölkt in 4500 ft


Am 24.08. zwischen 00:00 und 00:00 UTC übergehend zu

Wind 5 kt aus 40°

Sichtweite 10 km oder mehr

gering bewölkt in 4500 ft

TAF EDDS 231100Z 2312/2412 06006KT 9999 FEW045 BECMG 2318/2321 VRB03KT BECMG 2409/2412 04005KT
Impressum